createdAt,value
2017-09-01T00:00:11.099Z,11.23
2017-09-01T00:02:38.554Z,21.93
2017-09-01T00:05:06.037Z,25.57
2017-09-01T00:07:33.503Z,16.10
2017-09-01T00:10:00.997Z,14.37
2017-09-01T00:12:28.464Z,13.03
2017-09-01T00:14:55.936Z,20.17
2017-09-01T00:17:23.410Z,12.83
2017-09-01T00:19:50.869Z,24.67
2017-09-01T00:22:18.389Z,14.53
2017-09-01T00:24:45.846Z,18.80
2017-09-01T00:27:13.329Z,14.00
2017-09-01T00:29:40.790Z,17.93
2017-09-01T00:32:08.263Z,13.33
2017-09-01T00:34:35.761Z,18.17
2017-09-01T00:37:03.225Z,18.87
2017-09-01T00:39:30.701Z,14.57
2017-09-01T00:41:58.164Z,12.33
2017-09-01T00:44:25.656Z,13.83
2017-09-01T00:46:53.153Z,13.73
2017-09-01T00:49:20.635Z,13.87
2017-09-01T00:51:48.116Z,12.57
2017-09-01T00:54:15.582Z,14.30
2017-09-01T00:56:43.073Z,21.03
2017-09-01T00:59:11.373Z,13.10
2017-09-01T01:01:38.841Z,13.50
2017-09-01T01:04:06.330Z,13.33
2017-09-01T01:06:33.909Z,18.83
2017-09-01T01:09:01.389Z,14.50
2017-09-01T01:11:29.357Z,14.07
2017-09-01T01:13:56.846Z,12.70
2017-09-01T01:16:24.311Z,15.43
2017-09-01T01:18:51.832Z,23.57
2017-09-01T01:21:19.310Z,11.50
2017-09-01T01:23:46.773Z,13.10
2017-09-01T01:26:14.256Z,15.77
2017-09-01T01:28:41.714Z,14.17
2017-09-01T01:31:09.194Z,12.57
2017-09-01T01:33:36.664Z,17.13
2017-09-01T01:36:04.140Z,13.33
2017-09-01T01:38:31.614Z,14.13
2017-09-01T01:40:59.096Z,18.27
2017-09-01T01:43:26.565Z,17.07
2017-09-01T01:45:54.041Z,17.17
2017-09-01T01:48:21.509Z,17.03
2017-09-01T01:50:49.003Z,21.43
2017-09-01T01:53:16.552Z,16.13
2017-09-01T01:55:44.018Z,15.07
2017-09-01T01:58:11.493Z,17.10
2017-09-01T02:00:39.002Z,16.00
2017-09-01T02:03:06.485Z,17.73
2017-09-01T02:05:33.945Z,21.97
2017-09-01T02:08:01.431Z,16.37
2017-09-01T02:10:28.912Z,14.27
2017-09-01T02:12:56.377Z,11.33
2017-09-01T02:15:23.840Z,16.80
2017-09-01T02:17:51.309Z,18.37
2017-09-01T02:20:18.785Z,17.27
2017-09-01T02:22:46.241Z,13.20
2017-09-01T02:25:13.745Z,10.93
2017-09-01T02:27:41.220Z,15.00
2017-09-01T02:30:08.685Z,11.63
2017-09-01T02:32:36.817Z,16.70
2017-09-01T02:35:04.286Z,11.90
2017-09-01T02:37:31.765Z,14.83
2017-09-01T02:39:59.362Z,12.13
2017-09-01T02:42:26.813Z,16.77
2017-09-01T02:44:54.304Z,19.27
2017-09-01T02:47:21.781Z,20.33
2017-09-01T02:49:49.267Z,16.40
2017-09-01T02:52:16.736Z,14.57
2017-09-01T02:54:44.216Z,14.13
2017-09-01T02:57:11.696Z,14.63
2017-09-01T02:59:39.191Z,14.83
2017-09-01T03:02:06.823Z,13.30
2017-09-01T03:04:34.297Z,20.90
2017-09-01T03:07:01.902Z,14.20
2017-09-01T03:09:29.357Z,14.17
2017-09-01T03:11:56.836Z,10.63
2017-09-01T03:14:24.319Z,14.70
2017-09-01T03:16:51.924Z,16.93
2017-09-01T03:19:20.176Z,15.40
2017-09-01T03:21:47.645Z,17.70
2017-09-01T03:24:15.113Z,15.43
2017-09-01T03:26:42.580Z,13.30
2017-09-01T03:29:10.064Z,12.20
2017-09-01T03:31:37.537Z,12.80
2017-09-01T03:34:05.013Z,11.80
2017-09-01T03:36:32.487Z,11.80
2017-09-01T03:38:59.960Z,16.17
2017-09-01T03:41:27.430Z,13.10
2017-09-01T03:43:54.900Z,16.50
2017-09-01T03:46:22.461Z,11.60
2017-09-01T03:48:49.925Z,16.30
2017-09-01T03:51:17.394Z,12.30
2017-09-01T03:53:45.497Z,12.27
2017-09-01T03:56:12.957Z,13.00
2017-09-01T03:58:40.916Z,13.03
2017-09-01T04:01:08.390Z,21.00
2017-09-01T04:03:35.845Z,14.73
2017-09-01T04:06:03.425Z,14.73
2017-09-01T04:08:30.901Z,11.27
2017-09-01T04:10:58.413Z,16.87
2017-09-01T04:13:25.886Z,11.63
2017-09-01T04:15:53.445Z,16.63
2017-09-01T04:18:20.957Z,12.97
2017-09-01T04:20:48.414Z,13.57
2017-09-01T04:23:15.914Z,18.37
2017-09-01T04:25:43.374Z,16.43
2017-09-01T04:28:10.844Z,19.43
2017-09-01T04:30:38.319Z,17.57
2017-09-01T04:33:05.799Z,22.13
2017-09-01T04:35:33.260Z,12.33
2017-09-01T04:38:00.733Z,15.67
2017-09-01T04:40:28.210Z,18.00
2017-09-01T04:42:55.686Z,12.80
2017-09-01T04:45:23.166Z,15.40
2017-09-01T04:47:50.647Z,12.93
2017-09-01T04:50:18.122Z,13.10
2017-09-01T04:52:45.591Z,15.90
2017-09-01T04:55:13.050Z,11.53
2017-09-01T04:57:40.526Z,14.60
2017-09-01T05:00:11.997Z,27.03
2017-09-01T05:02:39.460Z,13.70
2017-09-01T05:05:07.990Z,18.33
2017-09-01T05:07:35.465Z,12.93
2017-09-01T05:10:02.932Z,16.70
2017-09-01T05:12:30.416Z,18.50
2017-09-01T05:14:57.869Z,15.53
2017-09-01T05:19:59.238Z,18.33
2017-09-01T05:22:26.710Z,12.40
2017-09-01T05:24:54.169Z,14.83
2017-09-01T05:27:21.756Z,11.77
2017-09-01T05:29:49.235Z,13.10
2017-09-01T05:32:16.721Z,14.17
2017-09-01T05:34:44.196Z,12.70
2017-09-01T05:37:11.654Z,12.13
2017-09-01T05:39:39.123Z,12.20
2017-09-01T05:42:06.598Z,17.73
2017-09-01T05:47:08.059Z,14.70
2017-09-01T05:49:35.525Z,13.57
2017-09-01T05:52:03.009Z,16.63
2017-09-01T05:54:30.499Z,12.83
2017-09-01T05:56:58.002Z,13.27
2017-09-01T05:59:25.462Z,18.13
2017-09-01T06:01:52.924Z,16.90
2017-09-01T06:04:20.409Z,14.27
2017-09-01T06:06:47.897Z,19.17
2017-09-01T06:09:15.434Z,17.80
2017-09-01T06:11:42.899Z,15.23
2017-09-01T06:14:10.361Z,14.20
2017-09-01T06:16:37.845Z,15.93
2017-09-01T06:19:05.306Z,18.60
2017-09-01T06:21:32.937Z,18.03
2017-09-01T06:24:00.392Z,16.10
2017-09-01T06:26:28.027Z,16.07
2017-09-01T06:28:55.517Z,17.40
2017-09-01T06:31:23.123Z,16.37
2017-09-01T06:33:50.773Z,24.47
2017-09-01T06:36:18.234Z,19.70
2017-09-01T06:38:46.733Z,15.80
2017-09-01T06:41:14.199Z,20.37
2017-09-01T06:43:41.725Z,16.70
2017-09-01T06:46:09.194Z,15.37
2017-09-01T06:48:36.683Z,15.70
2017-09-01T06:51:04.187Z,14.97
2017-09-01T06:53:31.702Z,16.20
2017-09-01T06:55:59.187Z,17.87
2017-09-01T06:58:26.714Z,17.27
2017-09-01T07:00:54.181Z,20.53
2017-09-01T07:03:21.661Z,14.53
2017-09-01T07:05:49.155Z,15.10
2017-09-01T07:08:16.637Z,20.37
2017-09-01T07:10:44.093Z,13.97
2017-09-01T07:13:11.574Z,14.50
2017-09-01T07:15:39.044Z,16.10
2017-09-01T07:18:06.495Z,14.63
2017-09-01T07:20:33.972Z,30.63
2017-09-01T07:23:01.443Z,26.03
2017-09-01T07:25:28.959Z,18.77
2017-09-01T07:27:56.427Z,16.60
2017-09-01T07:30:23.895Z,18.43
2017-09-01T07:32:51.369Z,14.77
2017-09-01T07:35:18.831Z,15.57
2017-09-01T07:37:46.454Z,16.00
2017-09-01T07:40:13.923Z,12.70
2017-09-01T07:42:41.385Z,18.03
2017-09-01T07:45:08.903Z,10.97
2017-09-01T07:47:36.506Z,11.70
2017-09-01T07:50:03.985Z,15.03
2017-09-01T07:52:31.445Z,11.83
2017-09-01T07:54:59.027Z,15.93
2017-09-01T07:57:26.504Z,14.17
2017-09-01T07:59:53.969Z,13.70
2017-09-01T08:02:21.442Z,14.27
2017-09-01T08:04:49.020Z,17.30
2017-09-01T08:07:16.492Z,10.17
2017-09-01T08:09:43.985Z,11.67
2017-09-01T08:12:11.454Z,10.83
2017-09-01T08:14:38.940Z,11.27
2017-09-01T08:17:06.428Z,13.80
2017-09-01T08:19:33.888Z,12.67
2017-09-01T08:22:01.450Z,15.03
2017-09-01T08:24:28.929Z,12.23
2017-09-01T08:26:56.389Z,12.73
2017-09-01T08:29:23.890Z,15.60
2017-09-01T08:31:51.353Z,12.40
2017-09-01T08:34:18.810Z,17.10
2017-09-01T08:36:46.382Z,16.37
2017-09-01T08:39:13.840Z,12.63
2017-09-01T08:41:42.255Z,11.80
2017-09-01T08:44:09.723Z,19.80
2017-09-01T08:46:37.193Z,13.23
2017-09-01T08:49:04.705Z,14.27
2017-09-01T08:51:32.177Z,21.27
2017-09-01T08:53:59.638Z,14.50
2017-09-01T08:56:27.100Z,14.90
2017-09-01T08:58:54.577Z,13.80
2017-09-01T09:01:22.134Z,13.67
2017-09-01T09:03:49.618Z,18.53
2017-09-01T09:06:17.085Z,16.27
2017-09-01T09:08:44.589Z,15.90
2017-09-01T09:11:12.059Z,18.57
2017-09-01T09:13:39.521Z,17.53
2017-09-01T09:16:07.011Z,17.07
2017-09-01T09:18:34.485Z,13.00
2017-09-01T09:21:01.983Z,16.27
2017-09-01T09:23:29.496Z,19.73
2017-09-01T09:25:56.958Z,16.53
2017-09-01T09:28:24.444Z,14.93
2017-09-01T09:30:51.916Z,15.00
2017-09-01T09:33:19.385Z,14.43
2017-09-01T09:35:46.889Z,15.23
2017-09-01T09:38:14.352Z,21.30
2017-09-01T09:40:41.825Z,16.10
2017-09-01T09:43:09.504Z,17.00
2017-09-01T09:45:36.968Z,15.00
2017-09-01T09:48:04.446Z,14.17
2017-09-01T09:50:32.002Z,18.73
2017-09-01T09:52:59.471Z,18.07
2017-09-01T09:55:27.153Z,20.50
2017-09-01T09:57:54.635Z,14.77
2017-09-01T10:00:22.122Z,17.43
2017-09-01T10:02:49.585Z,15.07
2017-09-01T10:05:17.148Z,15.80
2017-09-01T10:07:44.625Z,14.27
2017-09-01T10:10:12.093Z,13.53
2017-09-01T10:12:39.647Z,12.10
2017-09-01T10:15:07.214Z,26.63
2017-09-01T10:17:34.689Z,16.37
2017-09-01T10:20:02.158Z,13.13
2017-09-01T10:22:29.616Z,14.03
2017-09-01T10:24:57.185Z,11.00
2017-09-01T10:27:24.763Z,13.57
2017-09-01T10:29:52.240Z,11.40
2017-09-01T10:32:19.693Z,20.57
2017-09-01T10:34:47.372Z,6.93
2017-09-01T10:37:14.865Z,14.20
2017-09-01T10:39:42.336Z,10.93
2017-09-01T10:42:09.894Z,8.40
2017-09-01T10:44:37.348Z,9.00
2017-09-01T10:47:04.941Z,9.80
2017-09-01T10:49:44.287Z,9.43
2017-09-01T10:52:36.309Z,17.80
2017-09-01T10:55:15.597Z,12.40
2017-09-01T10:57:55.165Z,8.53
2017-09-01T11:00:22.639Z,11.30
2017-09-01T11:02:50.097Z,18.93
2017-09-01T11:05:17.566Z,9.37
2017-09-01T11:07:45.053Z,14.53
2017-09-01T11:10:12.564Z,13.83
2017-09-01T11:12:40.025Z,12.90
2017-09-01T11:15:07.489Z,10.90
2017-09-01T11:17:34.963Z,17.53
2017-09-01T11:20:08.205Z,15.60
2017-09-01T11:22:41.505Z,13.93
2017-09-01T11:25:08.965Z,13.17
2017-09-01T11:27:36.437Z,14.33
2017-09-01T11:30:03.902Z,11.70
2017-09-01T11:32:31.398Z,13.40
2017-09-01T11:34:58.878Z,10.53
2017-09-01T11:37:26.343Z,15.40
2017-09-01T11:39:53.811Z,10.60
2017-09-01T11:42:21.278Z,11.87
2017-09-01T11:44:48.957Z,9.73
2017-09-01T11:47:16.422Z,9.67
2017-09-01T11:49:43.882Z,10.90
2017-09-01T11:52:11.361Z,12.90
2017-09-01T11:54:39.040Z,6.20
2017-09-01T11:57:06.500Z,8.57
2017-09-01T11:59:33.998Z,8.40
2017-09-01T12:02:01.467Z,9.03
2017-09-01T12:04:29.130Z,9.13
2017-09-01T12:06:56.731Z,8.57
2017-09-01T12:09:24.210Z,5.20
2017-09-01T12:11:51.681Z,5.47
2017-09-01T12:14:19.153Z,13.40
2017-09-01T12:16:46.620Z,5.43
2017-09-01T12:19:14.237Z,9.40
2017-09-01T12:21:41.762Z,10.23
2017-09-01T12:24:09.222Z,8.00
2017-09-01T12:26:36.696Z,6.40
2017-09-01T12:29:04.164Z,4.87
2017-09-01T12:31:31.625Z,4.87
2017-09-01T12:33:59.147Z,7.90
2017-09-01T12:36:26.610Z,6.30
2017-09-01T12:38:54.077Z,8.77
2017-09-01T12:41:21.611Z,5.00
2017-09-01T12:43:49.101Z,5.43
2017-09-01T12:46:16.549Z,6.90
2017-09-01T12:48:44.021Z,8.00
2017-09-01T12:51:11.489Z,6.17
2017-09-01T12:53:39.605Z,4.27
2017-09-01T12:56:07.070Z,5.10
2017-09-01T12:58:34.520Z,5.73
2017-09-01T13:01:02.088Z,8.80
2017-09-01T13:03:29.550Z,6.40
2017-09-01T13:05:57.044Z,5.37
2017-09-01T13:08:24.522Z,7.00
2017-09-01T13:10:51.989Z,4.57
2017-09-01T13:13:19.453Z,3.60
2017-09-01T13:15:46.926Z,8.60
2017-09-01T13:18:14.390Z,4.17
2017-09-01T13:20:41.933Z,5.03
2017-09-01T13:23:09.565Z,5.20
2017-09-01T13:25:37.025Z,11.00
2017-09-01T13:28:04.497Z,8.23
2017-09-01T13:30:32.103Z,6.47
2017-09-01T13:32:59.642Z,4.73
2017-09-01T13:35:27.120Z,5.03
2017-09-01T13:37:54.577Z,3.70
2017-09-01T13:40:22.059Z,6.37
2017-09-01T13:42:49.728Z,2.97
2017-09-01T13:45:17.239Z,4.37
2017-09-01T13:47:44.706Z,5.77
2017-09-01T13:50:12.162Z,9.10
2017-09-01T13:52:39.664Z,7.13
2017-09-01T13:55:07.129Z,7.60
2017-09-01T13:57:34.592Z,7.50
2017-09-01T14:00:02.077Z,2.40
2017-09-01T14:02:29.553Z,4.07
2017-09-01T14:04:57.022Z,5.17
2017-09-01T14:07:24.501Z,9.33
2017-09-01T14:09:51.954Z,5.43
2017-09-01T14:12:19.486Z,5.70
2017-09-01T14:14:46.962Z,2.93
2017-09-01T14:17:14.432Z,6.10
2017-09-01T14:19:41.898Z,4.23
2017-09-01T14:22:09.374Z,2.23
2017-09-01T14:24:36.836Z,2.93
2017-09-01T14:27:04.289Z,5.83
2017-09-01T14:29:31.777Z,2.60
2017-09-01T14:31:59.236Z,5.97
2017-09-01T14:34:26.925Z,3.20
2017-09-01T14:36:54.393Z,3.90
2017-09-01T14:39:21.849Z,5.63
2017-09-01T14:41:49.325Z,3.30
2017-09-01T14:44:16.796Z,5.33
2017-09-01T14:46:44.277Z,9.20
2017-09-01T14:49:11.971Z,5.20
2017-09-01T14:51:39.435Z,4.07
2017-09-01T14:54:06.895Z,9.03
2017-09-01T14:56:34.428Z,6.10
2017-09-01T14:59:02.088Z,6.83
2017-09-01T15:01:29.569Z,4.93
2017-09-01T15:03:57.037Z,5.10
2017-09-01T15:06:24.502Z,6.37
2017-09-01T15:08:51.960Z,5.03
2017-09-01T15:11:19.414Z,8.20
2017-09-01T15:13:46.878Z,4.33
2017-09-01T15:16:14.352Z,7.53
2017-09-01T15:18:41.812Z,8.70
2017-09-01T15:21:09.297Z,6.87
2017-09-01T15:23:36.756Z,7.30
2017-09-01T15:26:04.232Z,8.53
2017-09-01T15:28:31.693Z,8.70
2017-09-01T15:30:59.157Z,8.07
2017-09-01T15:33:27.398Z,7.40
2017-09-01T15:35:54.881Z,9.10
2017-09-01T15:38:22.353Z,8.43
2017-09-01T15:40:49.821Z,5.27
2017-09-01T15:43:17.298Z,6.43
2017-09-01T15:45:44.762Z,7.10
2017-09-01T15:48:12.237Z,6.50
2017-09-01T15:50:39.986Z,6.27
2017-09-01T15:53:07.453Z,5.40
2017-09-01T15:55:34.932Z,5.50
2017-09-01T15:58:02.419Z,8.30
2017-09-01T16:00:29.908Z,10.10
2017-09-01T16:02:57.428Z,6.13
2017-09-01T16:05:24.891Z,6.03
2017-09-01T16:07:52.372Z,5.73
2017-09-01T16:10:19.831Z,5.50
2017-09-01T16:12:47.293Z,8.70
2017-09-01T16:15:14.777Z,11.67
2017-09-01T16:17:42.259Z,5.57
2017-09-01T16:20:09.728Z,7.87
2017-09-01T16:22:37.224Z,6.47
2017-09-01T16:25:04.737Z,6.40
2017-09-01T16:27:32.194Z,6.43
2017-09-01T16:29:59.838Z,4.53
2017-09-01T16:32:27.293Z,7.07
2017-09-01T16:34:54.782Z,8.60
2017-09-01T16:37:22.234Z,6.80
2017-09-01T16:39:49.871Z,6.90
2017-09-01T16:42:17.321Z,13.80
2017-09-01T16:44:44.806Z,7.10
2017-09-01T16:47:12.274Z,7.30
2017-09-01T16:49:39.743Z,5.40
2017-09-01T16:52:07.211Z,8.47
2017-09-01T16:54:34.665Z,8.03
2017-09-01T16:57:02.154Z,6.30
2017-09-01T16:59:29.647Z,5.93
2017-09-01T17:01:57.270Z,5.77
2017-09-01T17:04:24.748Z,5.30
2017-09-01T17:06:52.200Z,6.73
2017-09-01T17:09:19.824Z,8.30
2017-09-01T17:11:47.282Z,5.03
2017-09-01T17:14:14.761Z,5.93
2017-09-01T17:16:42.254Z,7.10
2017-09-01T17:19:09.724Z,8.17
2017-09-01T17:21:37.450Z,10.10
2017-09-01T17:24:04.920Z,8.20
2017-09-01T17:26:32.469Z,10.30
2017-09-01T17:28:59.920Z,6.20
2017-09-01T17:31:27.408Z,16.13
2017-09-01T17:33:54.871Z,6.80
2017-09-01T17:36:22.347Z,8.67
2017-09-01T17:38:49.813Z,37.40
2017-09-01T17:41:17.285Z,14.30
2017-09-01T17:43:44.765Z,19.07
2017-09-01T17:46:12.222Z,19.43
2017-09-01T17:48:39.692Z,11.40
2017-09-01T17:51:07.171Z,14.57
2017-09-01T17:53:34.671Z,19.27
2017-09-01T17:56:02.143Z,16.77
2017-09-01T17:58:29.599Z,15.73
2017-09-01T18:00:57.077Z,15.43
2017-09-01T18:03:24.538Z,22.67
2017-09-01T18:05:52.775Z,12.60
2017-09-01T18:08:20.357Z,12.87
2017-09-01T18:10:47.848Z,20.50
2017-09-01T18:13:15.321Z,13.47
2017-09-01T18:15:42.782Z,13.33
2017-09-01T18:18:10.273Z,15.90
2017-09-01T18:20:37.774Z,13.90
2017-09-01T18:23:05.245Z,19.97
2017-09-01T18:25:32.717Z,17.60
2017-09-01T18:28:00.275Z,18.73
2017-09-01T18:30:27.769Z,16.87
2017-09-01T18:32:55.232Z,22.73
2017-09-01T18:35:22.706Z,16.10
2017-09-01T18:37:50.170Z,19.83
2017-09-01T18:40:17.653Z,18.40
2017-09-01T18:42:45.122Z,17.27
2017-09-01T18:45:12.587Z,17.43
2017-09-01T18:47:40.073Z,21.63
2017-09-01T18:50:07.541Z,18.60
2017-09-01T18:52:35.028Z,20.80
2017-09-01T18:55:02.493Z,18.73
2017-09-01T18:57:29.979Z,18.83
2017-09-01T18:59:57.461Z,17.13
2017-09-01T19:02:24.918Z,18.60
2017-09-01T19:04:52.418Z,27.80
2017-09-01T19:07:19.897Z,20.10
2017-09-01T19:09:47.357Z,17.27
2017-09-01T19:12:14.814Z,17.97
2017-09-01T19:14:42.305Z,18.90
2017-09-01T19:17:09.950Z,19.50
2017-09-01T19:19:37.438Z,17.57
2017-09-01T19:22:04.926Z,18.23
2017-09-01T19:24:32.397Z,17.77
2017-09-01T19:26:59.986Z,16.53
2017-09-01T19:29:27.445Z,18.87
2017-09-01T19:31:54.914Z,18.83
2017-09-01T19:34:22.388Z,23.20
2017-09-01T19:36:50.008Z,24.37
2017-09-01T19:39:17.519Z,23.37
2017-09-01T19:41:44.983Z,23.70
2017-09-01T19:44:12.460Z,27.87
2017-09-01T19:46:39.999Z,33.77
2017-09-01T19:49:07.505Z,31.63
2017-09-01T19:51:34.974Z,40.47
2017-09-01T19:54:02.454Z,40.37
2017-09-01T21:50:06.008Z,16.40
2017-09-01T21:52:33.500Z,16.93
2017-09-01T21:57:37.987Z,16.27
2017-09-01T22:00:21.396Z,16.43
2017-09-01T22:02:48.880Z,15.13
2017-09-01T22:05:16.357Z,15.23
2017-09-01T22:07:43.817Z,18.83
2017-09-01T22:10:11.329Z,19.70
2017-09-01T22:12:38.833Z,16.77
2017-09-01T22:15:07.554Z,17.70
2017-09-01T22:17:35.013Z,17.00
2017-09-01T22:20:03.272Z,16.97
2017-09-01T22:22:30.749Z,17.13
2017-09-01T22:24:58.219Z,16.20
2017-09-01T22:27:25.688Z,17.23
2017-09-01T22:29:53.177Z,15.60
2017-09-01T22:32:20.658Z,16.50
2017-09-01T22:34:48.119Z,15.80
2017-09-01T22:37:15.588Z,20.17
2017-09-01T22:39:43.061Z,19.40
2017-09-01T22:42:10.538Z,24.70
2017-09-01T22:44:38.006Z,15.30
2017-09-01T22:47:05.499Z,16.23
2017-09-01T22:49:32.959Z,16.67
2017-09-01T22:52:00.432Z,20.27
2017-09-01T22:54:27.894Z,25.30
2017-09-01T22:56:55.376Z,20.13
2017-09-01T22:59:22.844Z,19.13
2017-09-01T23:01:50.379Z,20.43
2017-09-01T23:04:17.900Z,21.77
2017-09-01T23:06:45.378Z,18.40
2017-09-01T23:09:12.845Z,18.70
2017-09-01T23:11:41.012Z,19.97
2017-09-01T23:14:08.506Z,19.47
2017-09-01T23:16:35.986Z,19.43
2017-09-01T23:19:03.454Z,18.50
2017-09-01T23:21:30.931Z,20.30
2017-09-01T23:23:58.389Z,22.70
2017-09-01T23:26:25.858Z,19.43
2017-09-01T23:28:53.334Z,20.87
2017-09-01T23:31:20.799Z,22.00
2017-09-01T23:33:48.271Z,19.97
2017-09-01T23:36:15.740Z,21.93
2017-09-01T23:38:43.216Z,17.70
2017-09-01T23:41:10.665Z,21.33
2017-09-01T23:43:38.178Z,19.63
2017-09-01T23:46:05.646Z,24.73
2017-09-01T23:48:33.130Z,22.90
2017-09-01T23:51:00.601Z,21.47
2017-09-01T23:53:28.208Z,22.40
2017-09-01T23:55:55.705Z,23.80
2017-09-01T23:58:23.172Z,26.87
